createdAt,value
2018-03-02T00:03:44.672Z,1.2
2018-03-02T00:13:59.666Z,0.5
2018-03-02T00:24:11.872Z,0.5
2018-03-02T00:34:24.417Z,0.6
2018-03-02T00:44:42.824Z,0.5
2018-03-02T00:55:28.868Z,1.5
2018-03-02T01:06:17.848Z,1.3
2018-03-02T01:16:31.533Z,0.5
2018-03-02T01:27:18.880Z,0.8
2018-03-02T01:37:33.005Z,0.5
2018-03-02T01:47:46.942Z,1.7
2018-03-02T01:57:58.923Z,0.9
2018-03-02T02:08:13.455Z,0.5
2018-03-02T02:18:32.017Z,1.6
2018-03-02T02:28:49.245Z,0.5
2018-03-02T02:49:52.168Z,5.5
2018-03-02T03:00:44.172Z,0.5
2018-03-02T03:11:42.634Z,0.7
2018-03-02T03:22:04.696Z,0.5
2018-03-02T03:32:28.689Z,1.7
2018-03-02T03:42:43.653Z,0.5
2018-03-02T03:52:58.114Z,1.6
2018-03-02T04:03:49.147Z,0.5
2018-03-02T04:14:15.007Z,0.6
2018-03-02T04:25:00.658Z,0.5
2018-03-02T04:35:46.628Z,0.8
2018-03-02T04:46:32.118Z,0.5
2018-03-02T04:56:45.173Z,0.5
2018-03-02T05:06:58.549Z,1.0
2018-03-02T05:17:43.761Z,3.6
2018-03-02T05:27:55.702Z,1.1
2018-03-02T05:38:10.853Z,4.7
2018-03-02T05:48:56.291Z,1.4
2018-03-02T06:00:05.606Z,0.5
2018-03-02T06:10:17.618Z,2.8
2018-03-02T06:20:32.106Z,0.5
2018-03-02T06:30:56.148Z,0.5
2018-03-02T06:41:10.215Z,0.5
2018-03-02T06:51:55.980Z,0.8
2018-03-02T07:02:41.360Z,0.5
2018-03-02T07:13:26.158Z,3.3
2018-03-02T07:24:10.680Z,2.4
2018-03-02T07:36:03.605Z,1.1
2018-03-02T07:46:17.208Z,0.5
2018-03-02T07:56:31.497Z,1.5
2018-03-02T08:06:45.949Z,0.5
2018-03-02T08:17:31.980Z,0.5
2018-03-02T08:27:45.956Z,0.8
2018-03-02T08:38:00.331Z,7.0
2018-03-02T08:48:40.913Z,0.7
2018-03-02T08:59:16.306Z,2.1
2018-03-02T09:09:30.903Z,2.8
2018-03-02T09:20:55.119Z,5.1
2018-03-02T09:34:11.906Z,1.8
2018-03-02T09:44:48.291Z,2.6
2018-03-02T09:55:32.223Z,6.9
2018-03-02T10:06:03.356Z,3.7
2018-03-02T10:16:29.260Z,3.9
2018-03-02T10:26:53.760Z,6.8
2018-03-02T10:37:17.970Z,3.8
2018-03-02T10:48:53.110Z,10.0
2018-03-02T10:59:21.990Z,6.2
2018-03-02T11:10:01.228Z,7.4
2018-03-02T11:20:15.618Z,9.0
2018-03-02T11:30:50.927Z,7.3
2018-03-02T11:41:16.300Z,8.4
2018-03-02T12:12:38.714Z,9.6
2018-03-02T12:22:56.538Z,6.9
2018-03-02T12:33:20.014Z,8.9
2018-03-02T12:43:44.573Z,8.6
2018-03-02T12:55:02.194Z,9.0
2018-03-02T13:05:26.648Z,7.5
2018-03-02T13:16:37.242Z,7.9
2018-03-02T13:28:30.437Z,6.9
2018-03-02T13:39:17.730Z,10.0
2018-03-02T13:49:51.566Z,7.6
2018-03-02T14:01:41.114Z,7.2
2018-03-02T14:23:58.211Z,8.9
2018-03-02T14:53:29.757Z,6.2
2018-03-02T15:26:48.994Z,7.5
2018-03-02T16:35:23.935Z,9.5
2018-03-02T16:45:43.401Z,4.2
2018-03-02T17:00:10.947Z,9.4
2018-03-02T17:57:52.167Z,3.2
2018-03-02T18:09:24.065Z,1.9
2018-03-02T18:19:54.388Z,2.5
2018-03-02T18:30:59.740Z,7.5
2018-03-02T18:42:41.569Z,6.8
2018-03-02T18:53:20.497Z,1.0
2018-03-02T19:16:34.286Z,2.6
2018-03-02T20:10:27.719Z,2.9
2018-03-02T20:52:43.251Z,1.3
2018-03-02T21:19:41.328Z,4.0
2018-03-02T21:29:56.378Z,1.1
2018-03-02T21:40:11.374Z,2.9
2018-03-02T21:50:27.424Z,2.5
2018-03-02T22:00:41.930Z,3.6
2018-03-02T22:10:54.330Z,0.5
2018-03-02T22:21:08.331Z,0.8
2018-03-02T22:31:22.520Z,1.3
2018-03-02T22:41:36.925Z,4.1
2018-03-02T22:52:14.378Z,1.0
2018-03-02T23:02:28.584Z,1.6
2018-03-02T23:12:42.285Z,0.5
2018-03-02T23:22:56.602Z,0.5
2018-03-02T23:33:11.145Z,2.1
2018-03-02T23:43:23.512Z,1.2
2018-03-02T23:53:37.171Z,1.0
